Time;durP1;ratioP1;P1;durP2;ratioP2;P2;SDS_P1;SDS_P2;PMS_P1;PMS_P2;Temp;Humidity;BMP_temperature;BMP_pressure;BME280_temperature;BME280_humidity;BME280_pressure;Samples;Min_cycle;Max_cycle;Signal;HPM_P1;HPM_P2
2023/10/03 00:00:37;;;;;;;10.87;6.37;;;19.20;99.90;;;;;;5102720;28;20564;-50
2023/10/03 00:03:08;;;;;;;10.80;6.63;;;19.30;99.90;;;;;;5106378;28;20816;-52
2023/10/03 00:05:36;;;;;;;9.90;5.80;;;19.30;99.90;;;;;;5108500;28;20900;-55
2023/10/03 00:08:04;;;;;;;10.83;6.27;;;19.30;99.90;;;;;;5116257;28;20908;-51
2023/10/03 00:10:33;;;;;;;10.20;6.07;;;19.40;99.90;;;;;;5116142;28;20993;-50
2023/10/03 00:13:00;;;;;;;10.80;5.67;;;19.30;99.90;;;;;;5105105;28;20458;-49
2023/10/03 00:15:28;;;;;;;11.57;5.60;;;19.30;99.90;;;;;;5080783;28;20453;-45
2023/10/03 00:17:56;;;;;;;10.23;5.87;;;19.40;99.90;;;;;;5075153;28;20910;-51
2023/10/03 00:20:23;;;;;;;11.97;5.30;;;19.30;99.90;;;;;;5078777;28;20933;-53
2023/10/03 00:22:51;;;;;;;10.07;5.13;;;19.30;99.90;;;;;;5095539;28;20565;-52
2023/10/03 00:25:19;;;;;;;9.37;6.53;;;19.20;99.90;;;;;;5095325;28;20476;-53
2023/10/03 00:27:49;;;;;;;10.20;6.07;;;19.20;99.90;;;;;;5095150;28;20781;-52
2023/10/03 00:30:17;;;;;;;10.53;6.27;;;19.20;99.90;;;;;;5095283;28;20501;-51
2023/10/03 00:32:44;;;;;;;10.10;5.77;;;19.20;99.90;;;;;;5095441;28;20437;-53
2023/10/03 00:35:14;;;;;;;14.77;7.10;;;19.10;99.90;;;;;;5102550;28;20776;-53
2023/10/03 00:37:44;;;;;;;13.67;6.47;;;18.70;99.90;;;;;;5097611;28;20493;-52
2023/10/03 00:40:27;;;;;;;9.90;7.27;;;19.20;99.90;;;;;;5095460;28;20453;-52
2023/10/03 00:42:59;;;;;;;12.13;6.63;;;19.10;99.90;;;;;;5095118;28;20429;-49
2023/10/03 00:45:26;;;;;;;10.13;7.10;;;19.10;99.90;;;;;;5095101;28;20533;-54
2023/10/03 00:47:55;;;;;;;11.60;7.90;;;19.00;99.90;;;;;;5094529;28;20909;-53
2023/10/03 00:50:25;;;;;;;11.30;7.50;;;19.00;99.90;;;;;;5094922;28;20500;-48
2023/10/03 00:52:57;;;;;;;11.03;6.47;;;19.00;99.90;;;;;;5094585;28;20938;-52
2023/10/03 00:55:26;;;;;;;10.47;6.27;;;18.90;99.90;;;;;;5094648;28;20449;-50
2023/10/03 00:58:06;;;;;;;12.57;6.13;;;18.90;99.90;;;;;;5094456;28;20941;-51
2023/10/03 01:00:37;;;;;;;8.43;6.30;;;18.80;99.90;;;;;;5094931;28;20438;-52
2023/10/03 01:03:05;;;;;;;9.50;6.53;;;18.80;99.90;;;;;;5094703;28;20422;-52
2023/10/03 01:05:33;;;;;;;9.50;6.57;;;18.90;99.90;;;;;;5094871;28;20644;-48
2023/10/03 01:08:00;;;;;;;12.77;6.07;;;19.00;99.90;;;;;;5094287;28;20446;-51
2023/10/03 01:10:27;;;;;;;10.00;6.30;;;18.70;99.90;;;;;;5094834;28;20462;-51
2023/10/03 01:12:55;;;;;;;13.03;5.90;;;18.70;99.90;;;;;;5094623;28;20465;-48
2023/10/03 01:15:22;;;;;;;11.37;6.03;;;18.70;99.90;;;;;;5094149;28;20926;-49
2023/10/03 01:17:53;;;;;;;8.00;6.20;;;18.70;99.90;;;;;;5094443;28;20492;-53
2023/10/03 01:20:28;;;;;;;12.07;6.17;;;18.60;99.90;;;;;;5094362;28;20729;-53
2023/10/03 01:22:57;;;;;;;14.10;7.23;;;18.70;99.90;;;;;;5094479;28;20472;-54
2023/10/03 01:25:27;;;;;;;13.33;6.23;;;18.60;99.90;;;;;;5094121;28;20434;-52
2023/10/03 01:27:55;;;;;;;13.90;6.93;;;;;;;;;;5094392;28;20491;-54
2023/10/03 01:30:21;;;;;;;8.73;6.50;;;18.80;99.90;;;;;;5094206;28;20465;-54
2023/10/03 01:32:53;;;;;;;12.17;6.87;;;18.60;99.90;;;;;;5094227;28;20521;-52
2023/10/03 01:35:22;;;;;;;13.63;6.93;;;18.50;99.90;;;;;;5094345;28;20544;-52
2023/10/03 01:37:49;;;;;;;14.20;6.07;;;18.40;99.90;;;;;;5093729;28;20476;-50
2023/10/03 01:40:16;;;;;;;9.23;6.23;;;18.40;99.90;;;;;;5093998;28;20453;-55
2023/10/03 01:42:46;;;;;;;11.20;6.43;;;18.40;99.90;;;;;;5093763;28;20576;-54
2023/10/03 01:45:15;;;;;;;12.90;7.27;;;18.40;99.90;;;;;;5094293;28;20461;-53
2023/10/03 01:47:45;;;;;;;8.80;5.40;;;18.30;99.90;;;;;;5093524;28;20963;-54
2023/10/03 01:50:13;;;;;;;11.10;6.53;;;18.30;99.90;;;;;;5094159;28;20449;-53
2023/10/03 01:52:41;;;;;;;13.70;7.27;;;18.30;99.90;;;;;;5093594;28;20426;-53
2023/10/03 01:55:12;;;;;;;14.50;6.03;;;18.20;99.90;;;;;;5093665;28;20449;-52
2023/10/03 01:57:41;;;;;;;12.07;6.40;;;18.20;99.90;;;;;;5092819;28;20488;-47
2023/10/03 02:00:24;;;;;;;11.73;6.63;;;18.10;99.90;;;;;;5093828;28;20522;-53
2023/10/03 02:02:52;;;;;;;13.03;7.87;;;18.10;99.90;;;;;;5093516;28;20480;-48
2023/10/03 02:05:24;;;;;;;14.90;7.43;;;18.10;99.90;;;;;;5093517;28;20466;-54
2023/10/03 02:07:52;;;;;;;11.60;6.27;;;18.10;99.90;;;;;;5093945;28;20508;-54
2023/10/03 02:10:19;;;;;;;11.23;6.73;;;18.10;99.90;;;;;;5093759;28;20564;-53
2023/10/03 02:12:49;;;;;;;12.37;6.80;;;18.00;99.90;;;;;;5093848;28;20484;-56
2023/10/03 02:15:23;;;;;;;9.37;6.53;;;18.00;99.90;;;;;;5093804;28;20477;-51
2023/10/03 02:17:53;;;;;;;12.53;6.87;;;17.90;99.90;;;;;;5092908;28;20556;-55
2023/10/03 02:20:21;;;;;;;20.47;8.20;;;17.90;99.90;;;;;;5091165;28;20453;-52
2023/10/03 02:22:55;;;;;;;11.37;7.53;;;17.90;99.90;;;;;;5093126;28;20601;-54
2023/10/03 02:25:23;;;;;;;11.10;7.00;;;17.90;99.90;;;;;;5093918;28;20535;-49
2023/10/03 02:27:53;;;;;;;9.53;6.90;;;17.80;99.90;;;;;;5093352;28;20558;-53
2023/10/03 02:30:25;;;;;;;13.40;6.80;;;17.80;99.90;;;;;;5093166;28;20480;-50
2023/10/03 02:32:53;;;;;;;12.47;7.60;;;17.70;99.90;;;;;;5082980;28;20435;-51
2023/10/03 02:35:22;;;;;;;14.47;7.20;;;17.70;99.90;;;;;;5090121;28;20451;-52
2023/10/03 02:37:51;;;;;;;13.73;7.90;;;17.70;99.90;;;;;;5093688;28;20744;-48
2023/10/03 02:40:22;;;;;;;11.57;7.27;;;17.70;99.90;;;;;;5093483;28;20445;-49
2023/10/03 02:42:51;;;;;;;13.70;7.43;;;17.70;99.90;;;;;;5092412;28;20489;-51
2023/10/03 02:45:22;;;;;;;12.40;7.13;;;17.60;99.90;;;;;;5093416;28;20511;-51
2023/10/03 02:47:53;;;;;;;12.30;7.70;;;17.60;99.90;;;;;;5093304;28;20426;-48
2023/10/03 02:50:20;;;;;;;15.33;8.27;;;17.60;99.90;;;;;;5093444;28;20429;-49
2023/10/03 02:52:47;;;;;;;10.00;6.20;;;17.50;99.90;;;;;;5093789;28;20453;-57
2023/10/03 02:55:17;;;;;;;14.80;8.47;;;17.50;99.90;;;;;;5093165;28;20506;-51
2023/10/03 02:57:44;;;;;;;9.07;6.47;;;17.50;99.90;;;;;;5094387;28;20449;-46
2023/10/03 03:00:14;;;;;;;14.20;7.90;;;17.50;99.90;;;;;;5097667;28;20457;-46
2023/10/03 03:02:42;;;;;;;13.97;7.70;;;17.50;99.90;;;;;;5097835;28;20546;-52
2023/10/03 03:05:15;;;;;;;17.10;9.60;;;17.30;99.90;;;;;;5097997;28;20437;-51
2023/10/03 03:07:44;;;;;;;17.83;7.13;;;17.40;99.90;;;;;;5097842;28;20429;-53
2023/10/03 03:10:14;;;;;;;15.40;6.80;;;17.40;99.90;;;;;;5097929;28;20445;-49
2023/10/03 03:12:42;;;;;;;16.50;8.10;;;17.40;99.90;;;;;;5097888;28;20441;-51
2023/10/03 03:15:11;;;;;;;16.67;8.23;;;17.30;99.90;;;;;;5098369;28;20492;-51
2023/10/03 03:17:40;;;;;;;17.43;8.03;;;17.40;99.90;;;;;;5097918;28;20518;-52
2023/10/03 03:20:19;;;;;;;12.70;7.43;;;17.00;99.90;;;;;;5097677;28;20441;-55
2023/10/03 03:22:49;;;;;;;17.50;8.73;;;17.20;99.90;;;;;;5095716;28;21245;-52
2023/10/03 03:25:24;;;;;;;18.40;7.93;;;17.20;99.90;;;;;;5096284;28;20893;-51
2023/10/03 03:27:55;;;;;;;11.80;6.63;;;17.10;99.90;;;;;;5097297;28;20955;-53
2023/10/03 03:30:34;;;;;;;13.60;8.03;;;17.10;99.90;;;;;;5097605;28;20754;-49
2023/10/03 03:33:04;;;;;;;12.60;8.23;;;17.00;99.90;;;;;;5097533;28;20427;-50
2023/10/03 03:35:38;;;;;;;14.90;7.10;;;16.90;99.90;;;;;;5097109;28;20534;-50
2023/10/03 03:38:15;;;;;;;13.80;7.37;;;17.20;99.90;;;;;;5097686;28;20969;-53
2023/10/03 03:40:45;;;;;;;17.97;7.17;;;17.00;99.90;;;;;;5097089;28;20520;-51
2023/10/03 03:43:13;;;;;;;14.43;7.87;;;16.80;99.90;;;;;;5096895;28;20538;-52
2023/10/03 03:45:41;;;;;;;15.03;7.97;;;;;;;;;;5097389;28;20452;-51
2023/10/03 03:48:09;;;;;;;17.10;7.50;;;;;;;;;;5097039;28;20529;-54
2023/10/03 03:50:37;;;;;;;13.43;7.40;;;16.80;99.90;;;;;;5097122;28;20468;-54
2023/10/03 03:53:06;;;;;;;12.83;7.80;;;16.90;99.90;;;;;;5096872;28;20441;-52
2023/10/03 03:55:35;;;;;;;16.20;8.17;;;17.50;99.90;;;;;;5096866;28;20477;-49
2023/10/03 03:58:07;;;;;;;15.07;8.00;;;;;;;;;;5096164;28;20480;-51
2023/10/03 04:00:37;;;;;;;13.70;8.40;;;;;;;;;;5097176;28;20516;-53
2023/10/03 04:03:09;;;;;;;14.03;7.87;;;16.80;99.90;;;;;;5097073;28;21109;-50
2023/10/03 04:05:36;;;;;;;19.17;9.80;;;16.50;99.90;;;;;;5097138;28;20449;-53
2023/10/03 04:08:04;;;;;;;10.23;6.90;;;16.90;99.90;;;;;;5096953;28;20766;-53
2023/10/03 04:10:34;;;;;;;19.97;8.10;;;17.40;99.90;;;;;;5096721;28;20511;-54
2023/10/03 04:13:00;;;;;;;15.57;8.70;;;16.90;99.90;;;;;;5096785;28;20463;-50
2023/10/03 04:15:28;;;;;;;19.97;9.20;;;16.60;99.90;;;;;;5096302;28;20465;-47
2023/10/03 04:17:55;;;;;;;12.17;6.70;;;;;;;;;;5096597;28;20483;-50
2023/10/03 04:20:30;;;;;;;17.53;8.17;;;17.20;99.90;;;;;;5096561;28;20441;-54
2023/10/03 04:22:58;;;;;;;15.47;8.17;;;17.00;99.90;;;;;;5096553;28;20599;-51
2023/10/03 04:25:25;;;;;;;16.57;7.77;;;16.90;99.90;;;;;;5096728;28;20828;-55
2023/10/03 04:27:55;;;;;;;13.63;7.73;;;16.90;99.90;;;;;;5096557;28;20442;-49
2023/10/03 04:30:25;;;;;;;14.40;7.40;;;16.90;99.90;;;;;;5096560;28;20501;-52
2023/10/03 04:32:52;;;;;;;11.63;6.83;;;16.80;99.90;;;;;;5096729;28;20454;-51
2023/10/03 04:35:20;;;;;;;16.10;8.00;;;16.80;99.90;;;;;;5096476;28;20441;-51
2023/10/03 04:37:48;;;;;;;19.50;7.43;;;16.70;99.90;;;;;;5096381;28;20910;-50
2023/10/03 04:40:22;;;;;;;13.43;8.03;;;16.80;99.90;;;;;;5096032;28;20450;-53
2023/10/03 04:42:49;;;;;;;18.23;8.13;;;16.80;99.90;;;;;;5095829;28;20584;-52
2023/10/03 04:45:20;;;;;;;14.00;8.33;;;16.70;99.90;;;;;;5096020;28;20502;-50
2023/10/03 04:47:47;;;;;;;18.93;8.47;;;16.70;99.90;;;;;;5096338;28;20886;-51
2023/10/03 04:50:17;;;;;;;17.70;8.90;;;16.80;99.90;;;;;;5096224;28;20983;-53
2023/10/03 04:52:48;;;;;;;16.60;7.70;;;16.80;99.90;;;;;;5095958;28;20430;-52
2023/10/03 04:55:16;;;;;;;16.30;8.33;;;16.80;99.90;;;;;;5096017;28;20542;-49
2023/10/03 04:57:44;;;;;;;17.60;8.77;;;16.90;99.90;;;;;;5096091;28;20445;-49
2023/10/03 05:00:15;;;;;;;15.20;8.70;;;16.60;99.90;;;;;;5096116;28;20442;-49
2023/10/03 05:02:46;;;;;;;15.70;9.20;;;16.70;99.90;;;;;;5095759;28;20871;-51
2023/10/03 05:05:18;;;;;;;15.57;9.03;;;16.40;99.90;;;;;;5095856;28;20465;-52
2023/10/03 05:07:52;;;;;;;16.13;7.63;;;16.70;99.90;;;;;;5095651;28;20507;-51
2023/10/03 05:10:20;;;;;;;15.43;8.10;;;16.70;99.90;;;;;;5095719;28;20464;-52
2023/10/03 05:12:47;;;;;;;15.13;8.43;;;16.70;99.90;;;;;;5095385;28;20449;-54
2023/10/03 05:15:16;;;;;;;17.23;8.33;;;16.70;99.90;;;;;;5095815;28;20554;-53
2023/10/03 05:17:45;;;;;;;16.10;9.03;;;16.70;99.90;;;;;;5095344;28;20441;-51
2023/10/03 05:20:14;;;;;;;24.20;9.47;;;16.70;99.90;;;;;;5095373;28;20457;-51
2023/10/03 05:22:41;;;;;;;16.57;8.80;;;16.80;99.90;;;;;;5095236;28;20492;-51
2023/10/03 05:25:11;;;;;;;18.33;9.60;;;16.70;99.90;;;;;;5095519;28;20445;-48
2023/10/03 05:27:39;;;;;;;17.13;7.77;;;16.50;99.90;;;;;;5095635;28;20446;-51
2023/10/03 05:30:08;;;;;;;14.37;9.03;;;17.00;99.90;;;;;;5093580;28;20988;-51
2023/10/03 05:32:35;;;;;;;14.43;8.40;;;16.80;99.90;;;;;;5094893;28;20453;-51
2023/10/03 05:35:04;;;;;;;14.83;9.13;;;16.50;99.90;;;;;;5094724;28;20545;-50
2023/10/03 05:37:33;;;;;;;15.10;8.23;;;17.00;99.90;;;;;;5095088;28;20503;-53
2023/10/03 05:40:11;;;;;;;18.20;9.73;;;16.90;99.90;;;;;;5094895;28;20536;-51
2023/10/03 05:42:41;;;;;;;14.83;8.63;;;16.90;99.90;;;;;;5094814;28;20493;-47
2023/10/03 05:45:12;;;;;;;17.63;8.67;;;16.90;99.90;;;;;;5094924;28;20455;-50
2023/10/03 05:47:39;;;;;;;26.17;8.00;;;16.90;99.90;;;;;;5094971;28;20509;-50
2023/10/03 05:50:10;;;;;;;17.50;8.73;;;16.50;99.90;;;;;;5094489;28;20969;-48
2023/10/03 05:52:37;;;;;;;16.97;9.10;;;17.00;99.90;;;;;;5094569;28;20453;-48
2023/10/03 05:55:04;;;;;;;17.07;8.20;;;17.00;99.90;;;;;;5094679;28;20480;-50
2023/10/03 05:57:32;;;;;;;14.13;9.03;;;17.10;99.90;;;;;;5095006;28;20449;-50
2023/10/03 05:59:59;;;;;;;15.07;9.00;;;;;;;;;;5094794;28;20456;-49
2023/10/03 06:02:26;;;;;;;17.60;8.20;;;17.10;99.90;;;;;;5094632;28;20487;-47
2023/10/03 06:04:54;;;;;;;17.67;7.93;;;19.20;99.90;;;;;;5094593;28;20526;-48
2023/10/03 06:07:23;;;;;;;15.73;8.80;;;17.20;99.90;;;;;;5094530;28;20475;-51
2023/10/03 06:09:50;;;;;;;18.37;8.10;;;17.30;99.90;;;;;;5094613;28;20487;-51
2023/10/03 06:12:18;;;;;;;15.33;9.00;;;17.40;99.90;;;;;;5094416;28;20496;-51
2023/10/03 06:14:45;;;;;;;25.23;10.13;;;17.30;99.90;;;;;;5094440;28;20832;-52
2023/10/03 06:17:12;;;;;;;14.20;8.07;;;17.30;99.90;;;;;;5094086;28;20844;-52
2023/10/03 06:19:39;;;;;;;15.90;9.50;;;17.40;99.90;;;;;;5094092;28;20507;-50
2023/10/03 06:22:07;;;;;;;18.27;8.23;;;;;;;;;;5094444;28;20457;-52
2023/10/03 06:24:35;;;;;;;19.47;9.77;;;17.50;99.90;;;;;;5094599;28;20517;-50
2023/10/03 06:27:03;;;;;;;20.53;9.20;;;17.50;99.90;;;;;;5094642;28;20882;-52
2023/10/03 06:29:30;;;;;;;16.67;9.30;;;17.40;99.90;;;;;;5094471;28;20460;-49
2023/10/03 06:31:57;;;;;;;17.83;9.27;;;17.50;99.90;;;;;;5095101;28;20488;-48
2023/10/03 06:34:28;;;;;;;14.77;8.60;;;17.60;99.90;;;;;;5098261;28;20441;-52
2023/10/03 06:36:56;;;;;;;14.80;9.17;;;17.60;99.90;;;;;;5098056;28;20528;-53
2023/10/03 06:39:23;;;;;;;18.90;8.13;;;18.60;99.90;;;;;;5098043;28;20456;-50
2023/10/03 06:41:55;;;;;;;16.30;9.70;;;17.80;99.90;;;;;;5098234;28;20959;-47
2023/10/03 06:44:22;;;;;;;17.77;8.90;;;17.90;99.90;;;;;;5098078;28;20485;-48
2023/10/03 06:46:49;;;;;;;21.80;10.20;;;18.00;99.90;;;;;;5098165;28;20472;-49
2023/10/03 06:49:17;;;;;;;14.03;8.50;;;18.10;99.90;;;;;;5097592;28;20469;-52
2023/10/03 06:51:44;;;;;;;21.10;8.93;;;;;;;;;;5098185;28;20444;-52
2023/10/03 06:54:11;;;;;;;16.40;8.00;;;18.50;99.90;;;;;;5097764;28;20756;-48
2023/10/03 06:56:38;;;;;;;17.70;8.37;;;18.10;99.90;;;;;;5097944;28;20468;-48
2023/10/03 06:59:08;;;;;;;17.73;8.93;;;18.20;99.90;;;;;;5097774;28;20457;-52
2023/10/03 07:01:35;;;;;;;20.03;10.20;;;18.20;99.90;;;;;;5097930;28;20952;-50
2023/10/03 07:04:02;;;;;;;16.77;8.37;;;18.30;99.90;;;;;;5097358;28;20485;-52
2023/10/03 07:06:29;;;;;;;18.30;9.33;;;18.30;99.90;;;;;;5097707;28;20958;-52
2023/10/03 07:08:56;;;;;;;17.87;8.10;;;18.40;99.90;;;;;;5097608;28;20921;-54
2023/10/03 07:11:23;;;;;;;18.20;8.60;;;18.50;99.90;;;;;;5097597;28;20479;-52
2023/10/03 07:13:50;;;;;;;20.27;10.10;;;18.50;99.90;;;;;;5097129;28;20933;-54
2023/10/03 07:16:18;;;;;;;18.67;8.37;;;18.60;99.90;;;;;;5096112;28;20589;-54
2023/10/03 07:18:46;;;;;;;16.53;9.07;;;;;;;;;;5096080;28;20477;-51
2023/10/03 07:21:15;;;;;;;20.60;10.37;;;18.80;99.90;;;;;;5096597;28;20515;-52
2023/10/03 07:23:42;;;;;;;16.00;8.80;;;18.90;99.90;;;;;;5097221;28;20561;-53
2023/10/03 07:26:09;;;;;;;20.77;9.80;;;19.10;99.90;;;;;;5096627;28;20544;-53
2023/10/03 07:28:38;;;;;;;18.70;10.27;;;19.20;99.90;;;;;;5093832;28;20509;-53
2023/10/03 07:31:09;;;;;;;20.73;9.50;;;19.40;99.90;;;;;;5085268;28;20529;-48
2023/10/03 07:33:37;;;;;;;17.80;9.37;;;19.40;99.90;;;;;;5085826;28;20464;-52
2023/10/03 07:36:05;;;;;;;20.63;9.47;;;19.50;99.90;;;;;;5089535;28;20488;-47
2023/10/03 07:38:33;;;;;;;18.23;8.50;;;;;;;;;;5095122;28;20501;-55
2023/10/03 07:40:59;;;;;;;18.90;8.70;;;19.60;99.90;;;;;;5089413;28;20886;-55
2023/10/03 07:43:28;;;;;;;21.23;8.67;;;19.70;99.90;;;;;;5095336;28;20792;-52
2023/10/03 07:45:55;;;;;;;21.10;10.27;;;19.80;99.90;;;;;;5098730;28;20446;-52
2023/10/03 07:48:22;;;;;;;20.40;10.03;;;19.90;99.90;;;;;;5093708;28;20481;-52
2023/10/03 07:50:50;;;;;;;24.20;10.00;;;20.00;99.90;;;;;;5103478;28;20449;-52
2023/10/03 07:53:18;;;;;;;21.53;9.10;;;20.20;99.90;;;;;;5091457;28;20469;-52
2023/10/03 07:55:44;;;;;;;18.00;9.50;;;20.20;99.90;;;;;;5099953;28;20461;-53
2023/10/03 07:58:14;;;;;;;21.90;9.60;;;20.30;99.90;;;;;;5106039;28;20528;-51
2023/10/03 08:00:44;;;;;;;20.33;10.63;;;20.40;99.90;;;;;;5105957;28;20801;-53
2023/10/03 08:03:11;;;;;;;20.47;10.27;;;20.50;99.90;;;;;;5099241;28;20582;-53
2023/10/03 08:05:39;;;;;;;21.13;10.43;;;20.60;99.90;;;;;;5075667;28;20478;-52
2023/10/03 08:08:08;;;;;;;22.10;10.67;;;20.70;99.90;;;;;;5106416;28;20433;-51
2023/10/03 08:10:35;;;;;;;18.43;9.90;;;20.80;99.90;;;;;;5094955;28;20542;-53
2023/10/03 08:13:03;;;;;;;20.67;9.73;;;20.90;99.90;;;;;;5095807;28;20465;-46
2023/10/03 08:15:32;;;;;;;24.60;10.40;;;21.00;99.90;;;;;;5095607;28;20523;-51
2023/10/03 08:17:59;;;;;;;25.00;13.30;;;21.00;99.90;;;;;;5103383;28;20437;-52
2023/10/03 08:20:29;;;;;;;20.00;10.10;;;21.20;99.90;;;;;;5111177;28;20453;-53
2023/10/03 08:22:56;;;;;;;20.40;10.13;;;21.50;99.90;;;;;;5103593;28;20443;-49
2023/10/03 08:25:25;;;;;;;19.50;10.20;;;21.70;99.90;;;;;;5104865;28;20548;-52
2023/10/03 08:27:55;;;;;;;24.50;10.80;;;22.00;99.90;;;;;;5106092;28;20464;-50
2023/10/03 08:30:29;;;;;;;20.97;9.90;;;22.30;99.90;;;;;;5106866;28;20961;-50
2023/10/03 08:32:56;;;;;;;25.43;11.13;;;22.50;99.90;;;;;;5105714;28;20555;-55
2023/10/03 08:35:34;;;;;;;25.93;10.87;;;22.70;99.90;;;;;;5107912;28;20448;-51
2023/10/03 08:38:05;;;;;;;20.10;9.97;;;23.20;99.90;;;;;;5106045;28;20846;-54
2023/10/03 08:40:39;;;;;;;32.20;16.30;;;23.80;99.90;;;;;;5097905;28;20445;-52
2023/10/03 08:43:08;;;;;;;24.90;13.00;;;24.50;99.90;;;;;;5104087;28;20534;-54
2023/10/03 08:45:39;;;;;;;19.70;11.00;;;25.00;99.90;;;;;;5105506;28;20455;-51
2023/10/03 08:48:06;;;;;;;24.17;11.00;;;25.80;99.90;;;;;;5106997;28;20424;-49
2023/10/03 08:50:39;;;;;;;24.90;11.23;;;26.10;99.90;;;;;;5097378;28;20468;-53
2023/10/03 08:53:26;;;;;;;25.60;10.90;;;25.90;99.90;;;;;;5092175;28;21172;-46
2023/10/03 08:55:57;;;;;;;24.83;11.53;;;25.60;99.90;;;;;;5084638;28;20514;-48
2023/10/03 08:58:26;;;;;;;34.17;10.67;;;25.10;99.90;;;;;;5093866;28;20455;-49
2023/10/03 09:00:58;;;;;;;22.73;11.13;;;24.90;99.90;;;;;;5088197;28;20515;-50
2023/10/03 09:03:29;;;;;;;23.50;9.53;;;24.60;99.90;;;;;;5090193;28;20527;-49
2023/10/03 09:05:58;;;;;;;20.17;10.00;;;;;;;;;;5093368;28;21374;-51
2023/10/03 09:08:26;;;;;;;26.27;11.30;;;;;;;;;;5091131;28;20477;-52
2023/10/03 09:10:55;;;;;;;20.07;9.20;;;24.70;99.90;;;;;;5091940;28;20794;-48
2023/10/03 09:13:25;;;;;;;23.27;10.20;;;24.60;99.90;;;;;;5084001;28;20944;-51
2023/10/03 09:15:59;;;;;;;24.97;11.80;;;24.50;99.90;;;;;;5089680;28;20527;-50
2023/10/03 09:18:30;;;;;;;19.37;10.07;;;24.40;99.90;;;;;;5086042;28;20454;-51
2023/10/03 09:21:00;;;;;;;17.60;11.27;;;24.30;99.90;;;;;;5088474;28;20454;-53
2023/10/03 09:23:37;;;;;;;21.23;10.13;;;24.30;99.90;;;;;;5084468;28;20478;-51
2023/10/03 09:26:07;;;;;;;22.53;11.70;;;24.20;99.90;;;;;;5086194;28;20449;-54
2023/10/03 09:28:36;;;;;;;20.33;10.37;;;24.20;99.90;;;;;;5089058;28;20503;-54
2023/10/03 09:31:08;;;;;;;17.93;9.73;;;24.30;99.90;;;;;;5088538;28;20833;-48
2023/10/03 09:33:38;;;;;;;22.83;10.03;;;24.40;99.90;;;;;;5086954;28;20477;-49
2023/10/03 09:36:06;;;;;;;17.03;9.07;;;24.60;99.90;;;;;;5089722;28;20492;-50
2023/10/03 09:38:42;;;;;;;19.40;9.73;;;24.80;99.90;;;;;;5086395;28;20917;-51
2023/10/03 09:41:17;;;;;;;19.43;8.50;;;24.90;99.90;;;;;;5085879;28;20517;-49
2023/10/03 09:43:49;;;;;;;18.73;8.60;;;25.10;99.90;;;;;;5086037;28;20465;-48
2023/10/03 09:46:23;;;;;;;19.67;9.93;;;25.20;99.90;;;;;;5083684;28;20477;-48
2023/10/03 09:48:54;;;;;;;26.23;9.70;;;25.50;99.90;;;;;;5089103;28;20468;-50
2023/10/03 09:51:36;;;;;;;20.80;10.23;;;25.70;99.90;;;;;;5089576;28;20473;-48
2023/10/03 09:54:08;;;;;;;23.83;9.30;;;25.80;99.90;;;;;;5092565;28;20526;-49
2023/10/03 09:56:40;;;;;;;23.67;11.27;;;25.60;99.90;;;;;;5094902;28;20534;-49
2023/10/03 09:59:08;;;;;;;17.10;10.97;;;25.20;99.90;;;;;;5091203;28;20684;-51
2023/10/03 10:01:39;;;;;;;27.67;9.63;;;25.40;99.90;;;;;;5089955;28;20587;-53
2023/10/03 10:04:08;;;;;;;18.33;9.73;;;25.60;99.90;;;;;;5091031;28;20487;-55
2023/10/03 10:06:47;;;;;;;20.23;9.53;;;25.60;99.90;;;;;;5097222;28;20966;-52
2023/10/03 10:09:27;;;;;;;23.57;12.17;;;25.90;99.90;;;;;;5099370;28;20984;-48
2023/10/03 10:12:26;;;;;;;21.57;11.67;;;26.00;99.90;;;;;;5099734;28;20583;-53
2023/10/03 10:15:17;;;;;;;22.90;11.67;;;26.10;99.90;;;;;;5015326;28;20534;-53
2023/10/03 10:17:51;;;;;;;25.93;10.23;;;26.00;99.90;;;;;;5091460;28;20797;-52
2023/10/03 10:20:21;;;;;;;16.60;8.83;;;25.90;99.90;;;;;;5102574;28;20534;-53
2023/10/03 10:23:20;;;;;;;22.13;8.83;;;26.00;99.90;;;;;;5092379;28;20968;-54
2023/10/03 10:25:51;;;;;;;18.13;8.90;;;26.40;99.90;;;;;;5094153;28;20827;-53
2023/10/03 10:28:27;;;;;;;15.50;7.90;;;26.90;99.90;;;;;;5093708;28;20488;-52
2023/10/03 10:31:29;;;;;;;19.40;10.23;;;27.10;99.90;;;;;;5101037;28;20473;-53
2023/10/03 10:34:30;;;;;;;20.00;9.10;;;27.30;99.90;;;;;;5068251;28;20508;-50
2023/10/03 10:37:03;;;;;;;16.90;10.10;;;27.30;99.90;;;;;;5087134;28;20902;-50
2023/10/03 10:40:21;;;;;;;18.07;10.40;;;27.30;99.90;;;;;;5101358;28;20456;-53
2023/10/03 10:43:06;;;;;;;21.37;10.37;;;27.20;99.90;;;;;;5091278;28;20460;-51
2023/10/03 10:45:44;;;;;;;18.07;9.23;;;27.30;99.90;;;;;;5090005;28;20478;-56
2023/10/03 10:48:12;;;;;;;16.17;9.70;;;27.20;99.90;;;;;;5087676;28;20497;-53
2023/10/03 10:51:09;;;;;;;17.30;9.33;;;27.00;99.90;;;;;;5086041;28;20462;-52
2023/10/03 10:53:40;;;;;;;19.33;8.37;;;26.90;99.90;;;;;;5087694;28;20898;-55
2023/10/03 10:56:09;;;;;;;21.67;8.07;;;26.80;99.90;;;;;;5094646;28;20476;-54
2023/10/03 10:58:51;;;;;;;23.07;10.80;;;26.70;99.90;;;;;;5096900;28;20477;-51
2023/10/03 11:01:20;;;;;;;18.13;9.50;;;26.50;99.90;;;;;;5092448;28;20429;-54
2023/10/03 11:03:50;;;;;;;14.73;7.43;;;26.30;99.90;;;;;;5104068;28;20488;-52
2023/10/03 11:06:17;;;;;;;20.97;10.03;;;26.10;99.90;;;;;;5112857;28;20760;-52
2023/10/03 11:08:45;;;;;;;17.00;8.93;;;25.90;99.90;;;;;;5093226;28;20553;-52
2023/10/03 11:11:12;;;;;;;12.70;6.90;;;;;;;;;;5102234;28;20497;-53
2023/10/03 11:13:47;;;;;;;11.63;7.10;;;25.70;99.90;;;;;;5103752;28;20429;-54
2023/10/03 11:16:23;;;;;;;14.77;7.43;;;25.60;99.90;;;;;;5079952;28;20495;-48
2023/10/03 11:18:54;;;;;;;18.07;9.20;;;25.60;99.90;;;;;;5091300;28;20449;-55
2023/10/03 11:21:21;;;;;;;30.13;15.67;;;25.60;99.90;;;;;;5085505;28;20945;-54
2023/10/03 11:24:25;;;;;;;19.30;9.77;;;25.50;99.90;;;;;;5102630;28;20461;-48
2023/10/03 11:26:53;;;;;;;14.23;7.47;;;25.60;99.90;;;;;;5105611;28;20885;-49
2023/10/03 11:29:40;;;;;;;15.40;8.00;;;25.60;99.90;;;;;;5105709;28;20814;-50
2023/10/03 11:32:19;;;;;;;14.10;7.20;;;25.50;99.90;;;;;;5110324;28;20511;-54
2023/10/03 11:34:48;;;;;;;10.20;6.87;;;25.40;99.90;;;;;;5096467;28;20430;-53
2023/10/03 11:37:31;;;;;;;14.47;8.03;;;25.40;99.90;;;;;;5083559;28;20785;-50
2023/10/03 11:40:11;;;;;;;11.27;7.60;;;25.40;99.90;;;;;;5077162;28;20462;-53
2023/10/03 11:42:51;;;;;;;16.93;7.67;;;25.30;99.90;;;;;;5093766;28;20929;-52
2023/10/03 11:45:19;;;;;;;19.20;7.60;;;25.10;99.90;;;;;;5085501;28;20474;-50
2023/10/03 11:48:06;;;;;;;13.43;8.10;;;24.90;99.90;;;;;;5090086;28;20516;-50
2023/10/03 11:50:34;;;;;;;13.73;7.03;;;24.80;99.90;;;;;;5085507;28;20878;-49
2023/10/03 11:53:01;;;;;;;13.40;7.23;;;24.70;99.90;;;;;;5094731;28;20544;-54
2023/10/03 11:55:28;;;;;;;18.00;8.40;;;24.60;99.90;;;;;;5091249;28;20489;-51
2023/10/03 11:57:55;;;;;;;16.50;8.23;;;24.60;99.90;;;;;;5094298;28;20457;-47
2023/10/03 12:00:24;;;;;;;16.30;6.87;;;;;;;;;;5096359;28;20480;-54
2023/10/03 12:02:52;;;;;;;14.50;6.67;;;24.50;99.90;;;;;;5096142;28;20503;-51
2023/10/03 12:05:21;;;;;;;11.13;6.37;;;24.50;99.90;;;;;;5095829;28;20469;-53
2023/10/03 12:07:50;;;;;;;14.60;7.67;;;24.50;99.90;;;;;;5098230;28;20465;-52
2023/10/03 12:10:18;;;;;;;11.43;6.53;;;24.40;99.90;;;;;;5099217;28;20479;-50
2023/10/03 12:12:46;;;;;;;16.73;6.70;;;24.40;99.90;;;;;;5099220;28;20493;-54
2023/10/03 12:15:13;;;;;;;12.90;5.77;;;24.30;99.90;;;;;;5098692;28;20467;-48
2023/10/03 12:17:41;;;;;;;19.23;7.87;;;24.30;99.90;;;;;;5099051;28;20495;-55
2023/10/03 12:20:12;;;;;;;18.53;7.77;;;24.10;99.90;;;;;;5098340;28;20784;-54
2023/10/03 12:22:41;;;;;;;12.07;6.87;;;24.10;99.90;;;;;;5099307;28;20462;-53
2023/10/03 12:25:12;;;;;;;12.40;6.77;;;24.00;99.90;;;;;;5098777;28;20923;-55
2023/10/03 12:27:41;;;;;;;14.77;6.43;;;24.00;99.90;;;;;;5099202;28;20469;-55
2023/10/03 12:30:10;;;;;;;12.40;7.50;;;23.90;99.90;;;;;;5098881;28;20449;-53
2023/10/03 12:32:41;;;;;;;13.30;8.00;;;23.90;99.90;;;;;;5099361;28;20445;-57
2023/10/03 12:35:09;;;;;;;12.57;7.13;;;25.00;99.90;;;;;;5098865;28;20438;-55
2023/10/03 12:37:37;;;;;;;11.87;7.23;;;24.20;99.90;;;;;;5098169;28;20549;-53
2023/10/03 12:40:13;;;;;;;13.50;6.87;;;24.20;99.90;;;;;;5098695;28;20465;-51
2023/10/03 12:42:41;;;;;;;13.13;6.20;;;24.20;99.90;;;;;;5098666;28;20437;-53
2023/10/03 12:45:12;;;;;;;10.73;6.40;;;24.20;99.90;;;;;;5098699;28;20485;-52
2023/10/03 12:47:39;;;;;;;13.07;6.93;;;24.20;99.90;;;;;;5098740;28;20499;-53
2023/10/03 12:50:07;;;;;;;10.93;6.73;;;24.10;99.90;;;;;;5099055;28;20514;-49
2023/10/03 12:52:34;;;;;;;12.50;6.23;;;24.00;99.90;;;;;;5098774;28;20469;-52
2023/10/03 12:55:03;;;;;;;13.63;7.43;;;;;;;;;;5097833;28;20446;-51
2023/10/03 12:57:31;;;;;;;9.50;5.93;;;23.80;99.90;;;;;;5098819;28;20775;-50